createdAt,value
2019-04-03T00:00:01.310Z,0.00
2019-04-03T00:01:04.046Z,0.00
2019-04-03T00:02:04.036Z,0.00
2019-04-03T00:03:02.610Z,0.00
2019-04-03T00:04:04.043Z,0.00
2019-04-03T00:05:02.642Z,0.00
2019-04-03T00:06:01.248Z,0.00
2019-04-03T00:07:01.242Z,0.00
2019-04-03T00:08:01.229Z,0.00
2019-04-03T00:09:01.246Z,0.00
2019-04-03T00:10:01.211Z,0.00
2019-04-03T00:11:01.272Z,0.00
2019-04-03T00:12:01.188Z,0.00
2019-04-03T00:13:01.171Z,0.00
2019-04-03T00:14:01.173Z,0.00
2019-04-03T00:15:01.164Z,0.00
2019-04-03T00:16:01.229Z,0.00
2019-04-03T00:17:01.123Z,0.00
2019-04-03T00:18:01.109Z,0.00
2019-04-03T00:19:01.256Z,0.00
2019-04-03T00:20:01.092Z,0.00
2019-04-03T00:21:01.091Z,0.00
2019-04-03T00:22:01.066Z,0.00
2019-04-03T00:23:01.068Z,0.00
2019-04-03T00:24:01.046Z,0.00
2019-04-03T00:25:01.047Z,0.00
2019-04-03T00:26:01.097Z,0.00
2019-04-03T00:27:09.646Z,0.00
2019-04-03T00:28:43.289Z,0.00
2019-04-03T00:29:51.833Z,0.00
2019-04-03T00:31:24.855Z,0.00
2019-04-03T00:32:24.798Z,0.00
2019-04-03T00:33:24.785Z,0.00
2019-04-03T00:34:24.769Z,0.00
2019-04-03T00:35:24.757Z,0.00
2019-04-03T00:36:24.756Z,0.00
2019-04-03T00:37:24.745Z,0.00
2019-04-03T00:38:24.778Z,0.00
2019-04-03T00:39:24.922Z,0.00
2019-04-03T00:40:24.933Z,0.00
2019-04-03T00:41:25.079Z,0.00
2019-04-03T00:42:25.038Z,0.00
2019-04-03T00:43:25.304Z,0.00
2019-04-03T00:44:24.816Z,0.00
2019-04-03T00:45:25.082Z,0.00
2019-04-03T00:46:25.183Z,0.00
2019-04-03T00:47:25.751Z,0.00
2019-04-03T00:48:25.759Z,0.00
2019-04-03T00:49:26.074Z,0.00
2019-04-03T00:50:26.243Z,0.00
2019-04-03T00:51:26.988Z,0.00
2019-04-03T00:52:25.912Z,0.00
2019-04-03T00:53:25.908Z,0.00
2019-04-03T00:54:26.057Z,0.00
2019-04-03T00:55:24.875Z,0.00
2019-04-03T00:56:24.794Z,0.00
2019-04-03T00:57:26.114Z,0.00
2019-04-03T00:58:25.822Z,0.00
2019-04-03T00:59:24.720Z,0.00
2019-04-03T01:00:25.982Z,0.00
2019-04-03T01:01:26.151Z,0.00
2019-04-03T01:02:24.457Z,0.00
2019-04-03T01:03:24.446Z,0.00
2019-04-03T01:04:24.438Z,0.00
2019-04-03T01:05:24.427Z,0.00
2019-04-03T01:06:24.420Z,0.00
2019-04-03T01:07:24.520Z,0.00
2019-04-03T01:08:24.393Z,0.00
2019-04-03T01:09:24.381Z,0.00
2019-04-03T01:10:24.366Z,0.00
2019-04-03T01:11:24.512Z,0.00
2019-04-03T01:12:24.343Z,0.00
2019-04-03T01:13:24.333Z,0.00
2019-04-03T01:14:24.323Z,0.00
2019-04-03T01:15:24.305Z,0.00
2019-04-03T01:16:24.299Z,0.00
2019-04-03T01:17:24.392Z,0.00
2019-04-03T01:18:24.418Z,0.00
2019-04-03T01:19:24.269Z,0.00
2019-04-03T01:20:24.557Z,0.00
2019-04-03T01:21:24.241Z,0.00
2019-04-03T01:22:24.227Z,0.00
2019-04-03T01:23:24.225Z,0.00
2019-04-03T01:24:24.416Z,0.00
2019-04-03T01:25:24.189Z,0.00
2019-04-03T01:26:24.186Z,0.00
2019-04-03T01:27:24.176Z,0.00
2019-04-03T01:28:24.157Z,0.00
2019-04-03T01:29:24.154Z,0.00
2019-04-03T01:30:24.136Z,0.00
2019-04-03T01:31:24.126Z,0.00
2019-04-03T01:32:24.113Z,0.00
2019-04-03T01:33:24.104Z,0.00
2019-04-03T01:34:24.093Z,0.00
2019-04-03T01:35:24.085Z,0.00
2019-04-03T01:36:24.065Z,0.00
2019-04-03T01:37:24.185Z,0.00
2019-04-03T01:38:24.048Z,0.00
2019-04-03T01:39:24.043Z,0.00
2019-04-03T01:40:24.028Z,0.00
2019-04-03T01:41:24.006Z,0.00
2019-04-03T01:42:24.011Z,0.00
2019-04-03T01:43:23.989Z,0.00
2019-04-03T01:44:24.773Z,0.00
2019-04-03T01:45:25.822Z,0.00
2019-04-03T01:46:23.968Z,0.00
2019-04-03T01:47:23.942Z,0.00
2019-04-03T01:48:23.932Z,0.00
2019-04-03T01:49:23.949Z,0.00
2019-04-03T01:50:23.916Z,0.00
2019-04-03T01:51:24.029Z,0.00
2019-04-03T01:52:23.894Z,0.00
2019-04-03T01:53:23.873Z,0.00
2019-04-03T01:54:23.865Z,0.00
2019-04-03T01:55:23.851Z,0.00
2019-04-03T01:56:23.845Z,0.00
2019-04-03T01:57:24.008Z,0.00
2019-04-03T01:58:23.815Z,0.00
2019-04-03T01:59:23.809Z,0.00
2019-04-03T02:00:23.816Z,0.00
2019-04-03T02:01:32.448Z,0.00
2019-04-03T02:03:05.500Z,0.00
2019-04-03T02:04:05.473Z,0.00
2019-04-03T02:05:47.657Z,0.00
2019-04-03T02:06:47.623Z,0.00
2019-04-03T02:07:47.615Z,0.00
2019-04-03T02:08:47.866Z,0.00
2019-04-03T02:09:47.622Z,0.00
2019-04-03T02:10:48.930Z,0.00
2019-04-03T02:11:49.230Z,0.00
2019-04-03T02:12:50.405Z,0.00
2019-04-03T02:13:47.548Z,0.00
2019-04-03T02:14:47.626Z,0.00
2019-04-03T02:15:47.518Z,0.00
2019-04-03T02:16:47.511Z,0.00
2019-04-03T02:17:47.645Z,0.00
2019-04-03T02:18:47.480Z,0.00
2019-04-03T02:19:47.476Z,0.00
2019-04-03T02:20:47.656Z,0.00
2019-04-03T02:21:47.446Z,0.00
2019-04-03T02:22:47.438Z,0.00
2019-04-03T02:23:47.434Z,0.00
2019-04-03T02:24:47.413Z,0.00
2019-04-03T02:25:47.407Z,0.00
2019-04-03T02:26:47.402Z,0.00
2019-04-03T02:27:47.380Z,0.00
2019-04-03T02:28:47.366Z,0.00
2019-04-03T02:29:47.437Z,0.00
2019-04-03T02:30:47.425Z,0.00
2019-04-03T02:31:49.505Z,0.00
2019-04-03T02:32:47.327Z,0.00
2019-04-03T02:33:47.316Z,0.00
2019-04-03T02:34:47.356Z,0.00
2019-04-03T02:35:47.552Z,0.00
2019-04-03T02:36:47.295Z,0.00
2019-04-03T02:37:49.762Z,0.00
2019-04-03T02:38:47.520Z,0.00
2019-04-03T02:39:47.254Z,0.00
2019-04-03T02:40:47.242Z,0.00
2019-04-03T02:41:47.302Z,0.00
2019-04-03T02:42:47.236Z,0.00
2019-04-03T02:43:47.717Z,0.00
2019-04-03T02:44:48.396Z,0.00
2019-04-03T02:45:47.186Z,0.00
2019-04-03T02:46:47.176Z,0.00
2019-04-03T02:47:47.157Z,0.00
2019-04-03T02:48:47.144Z,0.00
2019-04-03T02:49:47.149Z,0.00
2019-04-03T02:50:48.389Z,0.00
2019-04-03T02:51:47.224Z,0.00
2019-04-03T02:52:47.327Z,0.00
2019-04-03T02:53:47.135Z,0.00
2019-04-03T02:54:47.077Z,0.00
2019-04-03T02:55:47.338Z,0.00
2019-04-03T02:56:47.064Z,0.00
2019-04-03T02:57:49.276Z,0.00
2019-04-03T02:58:47.147Z,0.00
2019-04-03T02:59:47.025Z,0.00
2019-04-03T03:00:47.019Z,0.00
2019-04-03T03:01:47.066Z,0.00
2019-04-03T03:02:47.310Z,0.00
2019-04-03T03:03:49.537Z,0.00
2019-04-03T03:04:47.051Z,0.00
2019-04-03T03:05:46.952Z,0.00
2019-04-03T03:06:46.950Z,0.00
2019-04-03T03:07:46.947Z,0.00
2019-04-03T03:08:46.926Z,0.00
2019-04-03T03:09:47.627Z,0.00
2019-04-03T03:10:46.907Z,0.00
2019-04-03T03:11:47.252Z,0.00
2019-04-03T03:12:46.886Z,0.00
2019-04-03T03:13:46.869Z,0.00
2019-04-03T03:14:47.029Z,0.00
2019-04-03T03:15:46.846Z,0.00
2019-04-03T03:16:49.241Z,0.00
2019-04-03T03:17:46.826Z,0.00
2019-04-03T03:18:46.818Z,0.00
2019-04-03T03:19:47.040Z,0.00
2019-04-03T03:20:46.795Z,0.00
2019-04-03T03:21:46.972Z,0.00
2019-04-03T03:22:49.831Z,0.00
2019-04-03T03:23:46.866Z,0.00
2019-04-03T03:24:46.745Z,0.00
2019-04-03T03:25:46.813Z,0.00
2019-04-03T03:26:46.947Z,0.00
2019-04-03T03:27:46.711Z,0.00
2019-04-03T03:28:47.647Z,0.00
2019-04-03T03:29:46.693Z,0.00
2019-04-03T03:30:57.713Z,0.00
2019-04-03T03:32:04.771Z,0.00
2019-04-03T03:32:47.684Z,0.00
2019-04-03T03:33:46.659Z,0.00
2019-04-03T03:34:54.970Z,0.00
2019-04-03T03:35:50.199Z,0.00
2019-04-03T03:36:47.264Z,0.00
2019-04-03T03:37:46.619Z,0.00
2019-04-03T03:38:46.603Z,0.00
2019-04-03T03:39:46.995Z,0.00
2019-04-03T03:40:48.389Z,0.00
2019-04-03T03:41:46.564Z,0.00
2019-04-03T03:42:46.557Z,0.00
2019-04-03T03:43:46.532Z,0.00
2019-04-03T03:44:47.033Z,0.00
2019-04-03T03:45:46.526Z,0.00
2019-04-03T03:46:46.508Z,0.00
2019-04-03T03:47:46.647Z,0.00
2019-04-03T03:48:46.480Z,0.00
2019-04-03T03:49:48.564Z,0.00
2019-04-03T03:50:46.767Z,0.00
2019-04-03T03:51:46.457Z,0.00
2019-04-03T03:52:46.448Z,0.00
2019-04-03T03:53:46.839Z,0.00
2019-04-03T03:54:49.622Z,0.00
2019-04-03T03:55:46.698Z,0.00
2019-04-03T03:56:46.392Z,0.00
2019-04-03T03:57:46.378Z,0.00
2019-04-03T03:58:46.691Z,0.00
2019-04-03T03:59:49.418Z,0.00
2019-04-03T04:00:51.479Z,0.00
2019-04-03T04:01:47.338Z,0.00
2019-04-03T04:02:46.344Z,0.00
2019-04-03T04:03:46.756Z,0.00
2019-04-03T04:04:48.211Z,0.00
2019-04-03T04:05:46.387Z,0.00
2019-04-03T04:06:46.292Z,0.00
2019-04-03T04:07:46.408Z,0.00
2019-04-03T04:08:46.262Z,0.00
2019-04-03T04:09:49.703Z,0.00
2019-04-03T04:10:46.240Z,0.00
2019-04-03T04:11:46.537Z,0.00
2019-04-03T04:12:46.332Z,0.00
2019-04-03T04:13:48.479Z,0.00
2019-04-03T04:14:46.416Z,0.00
2019-04-03T04:15:46.357Z,0.00
2019-04-03T04:16:46.370Z,0.00
2019-04-03T04:17:48.628Z,0.00
2019-04-03T04:18:46.183Z,0.00
2019-04-03T04:19:46.157Z,0.00
2019-04-03T04:20:46.144Z,0.00
2019-04-03T04:21:46.117Z,0.00
2019-04-03T04:22:48.634Z,0.00
2019-04-03T04:23:46.105Z,0.00
2019-04-03T04:24:46.083Z,0.00
2019-04-03T04:25:46.080Z,0.00
2019-04-03T04:26:46.071Z,0.00
2019-04-03T04:27:46.053Z,0.00
2019-04-03T04:28:46.046Z,0.00
2019-04-03T04:29:46.032Z,0.00
2019-04-03T04:30:46.021Z,0.00
2019-04-03T04:31:46.011Z,0.00
2019-04-03T04:32:46.865Z,0.00
2019-04-03T04:33:47.989Z,0.00
2019-04-03T04:34:45.970Z,0.00
2019-04-03T04:35:46.436Z,0.00
2019-04-03T04:36:45.953Z,0.00
2019-04-03T04:37:45.950Z,0.00
2019-04-03T04:38:45.933Z,0.00
2019-04-03T04:39:45.922Z,0.00
2019-04-03T04:40:45.966Z,0.00
2019-04-03T04:41:45.902Z,0.00
2019-04-03T04:42:45.890Z,0.00
2019-04-03T04:43:45.897Z,0.00
2019-04-03T04:44:45.871Z,0.00
2019-04-03T04:45:45.870Z,0.00
2019-04-03T04:46:46.012Z,0.00
2019-04-03T04:47:46.507Z,0.00
2019-04-03T04:48:45.816Z,0.00
2019-04-03T04:49:45.811Z,0.00
2019-04-03T04:50:45.810Z,0.00
2019-04-03T04:51:46.040Z,0.00
2019-04-03T04:52:45.780Z,0.00
2019-04-03T04:53:45.781Z,0.00
2019-04-03T04:54:45.762Z,0.00
2019-04-03T04:55:45.747Z,0.00
2019-04-03T04:56:45.733Z,0.00
2019-04-03T04:57:45.727Z,5.62
2019-04-03T04:58:45.910Z,5.62
2019-04-03T04:59:45.710Z,5.62
2019-04-03T05:00:47.621Z,5.62
2019-04-03T05:01:47.044Z,5.62
2019-04-03T05:02:45.834Z,5.62
2019-04-03T05:03:45.668Z,5.62
2019-04-03T05:04:45.653Z,5.62
2019-04-03T05:05:52.780Z,5.62
2019-04-03T05:07:30.309Z,5.62
2019-04-03T05:08:34.911Z,5.62
2019-04-03T05:10:09.967Z,5.62
2019-04-03T05:11:09.898Z,5.62
2019-04-03T05:12:10.338Z,11.25
2019-04-03T05:13:09.876Z,11.25
2019-04-03T05:14:09.961Z,11.25
2019-04-03T05:15:09.881Z,11.25
2019-04-03T05:16:09.840Z,11.25
2019-04-03T05:17:09.839Z,11.25
2019-04-03T05:18:09.905Z,11.25
2019-04-03T05:19:15.852Z,11.25
2019-04-03T05:20:10.798Z,11.25
2019-04-03T05:21:09.961Z,11.25
2019-04-03T05:22:09.782Z,11.25
2019-04-03T05:23:09.764Z,11.25
2019-04-03T05:24:12.764Z,11.25
2019-04-03T05:25:09.802Z,16.88
2019-04-03T05:26:09.787Z,16.88
2019-04-03T05:27:09.731Z,16.88
2019-04-03T05:28:09.734Z,16.88
2019-04-03T05:29:09.702Z,16.88
2019-04-03T05:30:09.692Z,16.88
2019-04-03T05:31:09.846Z,16.88
2019-04-03T05:32:10.689Z,16.88
2019-04-03T05:33:11.459Z,16.88
2019-04-03T05:34:12.476Z,22.50
2019-04-03T05:35:09.645Z,22.50
2019-04-03T05:36:09.620Z,22.50
2019-04-03T05:37:11.669Z,22.50
2019-04-03T05:38:09.614Z,22.50
2019-04-03T05:39:09.597Z,22.50
2019-04-03T05:40:09.580Z,22.50
2019-04-03T05:41:09.577Z,22.50
2019-04-03T05:42:09.576Z,22.50
2019-04-03T05:43:09.584Z,28.12
2019-04-03T05:44:09.537Z,28.12
2019-04-03T05:45:09.529Z,28.12
2019-04-03T05:46:09.527Z,28.12
2019-04-03T05:47:09.507Z,28.12
2019-04-03T05:48:12.620Z,28.12
2019-04-03T05:49:10.884Z,28.12
2019-04-03T05:50:09.478Z,28.12
2019-04-03T05:51:09.502Z,28.12
2019-04-03T05:52:09.455Z,33.75
2019-04-03T05:53:09.445Z,33.75
2019-04-03T05:54:09.526Z,33.75
2019-04-03T05:55:10.164Z,33.75
2019-04-03T05:56:11.648Z,33.75
2019-04-03T05:57:09.431Z,33.75
2019-04-03T05:58:09.383Z,39.38
2019-04-03T05:59:09.377Z,39.38
2019-04-03T06:00:09.369Z,39.38
2019-04-03T06:01:11.395Z,39.38
2019-04-03T06:02:16.388Z,39.38
2019-04-03T06:03:10.343Z,39.38
2019-04-03T06:04:09.942Z,39.38
2019-04-03T06:05:11.408Z,39.38
2019-04-03T06:06:09.312Z,39.38
2019-04-03T06:07:09.300Z,39.38
2019-04-03T06:08:09.288Z,39.38
2019-04-03T06:09:09.341Z,45.00
2019-04-03T06:10:09.428Z,45.00
2019-04-03T06:11:09.784Z,45.00
2019-04-03T06:12:11.122Z,45.00
2019-04-03T06:13:09.228Z,45.00
2019-04-03T06:14:09.221Z,45.00
2019-04-03T06:15:10.319Z,45.00
2019-04-03T06:16:09.262Z,45.00
2019-04-03T06:17:09.178Z,45.00
2019-04-03T06:18:09.344Z,45.00
2019-04-03T06:19:09.300Z,45.00
2019-04-03T06:20:11.250Z,45.00
2019-04-03T06:21:09.355Z,45.00
2019-04-03T06:22:10.551Z,45.00
2019-04-03T06:23:09.171Z,45.00
2019-04-03T06:24:09.103Z,45.00
2019-04-03T06:25:13.441Z,50.62
2019-04-03T06:26:09.083Z,50.62
2019-04-03T06:27:10.030Z,50.62
2019-04-03T06:28:09.166Z,56.25
2019-04-03T06:29:09.475Z,56.25
2019-04-03T06:30:09.039Z,56.25
2019-04-03T06:31:09.039Z,61.88
2019-04-03T06:32:09.215Z,61.88
2019-04-03T06:33:09.081Z,67.50
2019-04-03T06:34:09.002Z,67.50
2019-04-03T06:35:08.985Z,73.12
2019-04-03T06:36:08.969Z,73.12
2019-04-03T06:37:09.152Z,73.12
2019-04-03T06:38:09.209Z,73.12
2019-04-03T06:39:21.934Z,73.12
2019-04-03T06:40:52.121Z,73.12
2019-04-03T06:41:59.237Z,67.50
2019-04-03T06:43:34.341Z,73.12
2019-04-03T06:44:34.224Z,73.12
2019-04-03T06:45:34.257Z,73.12
2019-04-03T06:46:34.394Z,67.50
2019-04-03T06:47:34.201Z,73.12
2019-04-03T06:48:34.589Z,73.12
2019-04-03T06:49:34.183Z,73.12
2019-04-03T06:50:34.160Z,73.12
2019-04-03T06:51:34.148Z,78.75
2019-04-03T06:52:34.135Z,78.75
2019-04-03T06:53:34.146Z,78.75
2019-04-03T06:54:34.232Z,78.75
2019-04-03T06:55:35.540Z,84.38
2019-04-03T06:56:34.085Z,78.75
2019-04-03T06:57:34.138Z,78.75
2019-04-03T06:58:38.985Z,73.12
2019-04-03T06:59:35.058Z,73.12
2019-04-03T07:00:34.043Z,78.75
2019-04-03T07:01:34.060Z,78.75
2019-04-03T07:02:34.139Z,84.38
2019-04-03T07:03:34.349Z,84.38
2019-04-03T07:04:34.008Z,84.38
2019-04-03T07:05:34.259Z,84.38
2019-04-03T07:06:33.975Z,84.38
2019-04-03T07:07:35.600Z,84.38
2019-04-03T07:08:36.193Z,84.38
2019-04-03T07:09:36.500Z,84.38
2019-04-03T07:10:34.563Z,84.38
2019-04-03T07:11:33.933Z,84.38
2019-04-03T07:12:34.050Z,90.00
2019-04-03T07:13:33.897Z,90.00
2019-04-03T07:14:33.885Z,95.62
2019-04-03T07:15:34.122Z,95.62
2019-04-03T07:16:33.865Z,95.62
2019-04-03T07:17:33.869Z,95.62
2019-04-03T07:18:36.067Z,95.62
2019-04-03T07:19:33.841Z,95.62
2019-04-03T07:20:33.982Z,95.62
2019-04-03T07:21:33.807Z,95.62
2019-04-03T07:22:34.097Z,101.25
2019-04-03T07:23:33.782Z,101.25
2019-04-03T07:24:33.904Z,101.25
2019-04-03T07:25:34.529Z,106.88
2019-04-03T07:26:35.685Z,106.88
2019-04-03T07:27:36.496Z,106.88
2019-04-03T07:28:33.729Z,112.50
2019-04-03T07:29:33.981Z,112.50
2019-04-03T07:30:33.712Z,118.12
2019-04-03T07:31:33.869Z,118.12
2019-04-03T07:32:33.688Z,118.12
2019-04-03T07:33:34.015Z,118.12
2019-04-03T07:34:34.478Z,123.75
2019-04-03T07:35:33.672Z,123.75
2019-04-03T07:36:33.640Z,123.75
2019-04-03T07:37:33.797Z,123.75
2019-04-03T07:38:33.626Z,118.12
2019-04-03T07:39:33.801Z,118.12
2019-04-03T07:40:33.594Z,118.12
2019-04-03T07:41:33.592Z,112.50
2019-04-03T07:42:33.579Z,112.50
2019-04-03T07:43:33.574Z,112.50
2019-04-03T07:44:33.724Z,112.50
2019-04-03T07:45:33.664Z,112.50
2019-04-03T07:46:33.951Z,118.12
2019-04-03T07:47:34.996Z,118.12
2019-04-03T07:48:33.701Z,123.75
2019-04-03T07:49:33.695Z,123.75
2019-04-03T07:50:36.338Z,123.75
2019-04-03T07:51:33.478Z,129.38
2019-04-03T07:52:33.826Z,135.00
2019-04-03T07:53:33.457Z,140.62
2019-04-03T07:54:33.556Z,140.62
2019-04-03T07:55:33.436Z,135.00
2019-04-03T07:56:33.575Z,135.00
2019-04-03T07:57:33.407Z,135.00
2019-04-03T07:58:33.402Z,129.38
2019-04-03T07:59:34.251Z,135.00
2019-04-03T08:00:33.379Z,135.00
2019-04-03T08:01:33.578Z,140.62
2019-04-03T08:02:34.225Z,140.62
2019-04-03T08:03:33.621Z,146.25
2019-04-03T08:04:33.351Z,146.25
2019-04-03T08:05:33.324Z,146.25
2019-04-03T08:06:35.840Z,151.88
2019-04-03T08:07:33.299Z,151.88
2019-04-03T08:08:33.341Z,151.88
2019-04-03T08:09:33.271Z,151.88
2019-04-03T08:10:33.275Z,151.88
2019-04-03T08:11:33.568Z,151.88
2019-04-03T08:12:35.704Z,157.50
2019-04-03T08:13:41.867Z,157.50
2019-04-03T08:15:15.425Z,163.12
2019-04-03T08:16:15.769Z,163.12
2019-04-03T08:17:16.726Z,168.75
2019-04-03T08:18:15.370Z,174.38
2019-04-03T08:19:15.392Z,174.38
2019-04-03T08:20:15.345Z,180.00
2019-04-03T08:21:15.364Z,185.62
2019-04-03T08:22:15.326Z,191.25
2019-04-03T08:23:15.442Z,196.88
2019-04-03T08:24:15.425Z,202.50
2019-04-03T08:25:15.291Z,230.62
2019-04-03T08:26:18.570Z,421.88
2019-04-03T08:27:15.275Z,641.25
2019-04-03T08:28:15.566Z,658.12
2019-04-03T08:29:15.317Z,658.12
2019-04-03T08:30:15.234Z,849.38
2019-04-03T08:31:15.233Z,1192.50
2019-04-03T08:32:16.198Z,1265.62
2019-04-03T08:33:18.257Z,1248.75
2019-04-03T08:34:18.066Z,1113.75
2019-04-03T08:35:22.091Z,613.12
2019-04-03T08:36:24.343Z,326.25
2019-04-03T08:37:28.416Z,196.88
2019-04-03T08:38:16.175Z,185.62
2019-04-03T08:39:16.070Z,196.88
2019-04-03T08:40:15.155Z,382.50
2019-04-03T08:41:15.340Z,866.25
2019-04-03T08:42:15.106Z,967.50
2019-04-03T08:43:15.175Z,883.12
2019-04-03T08:44:15.118Z,1029.38
2019-04-03T08:45:15.066Z,1046.25
2019-04-03T08:46:15.053Z,933.75
2019-04-03T08:47:15.371Z,995.62
2019-04-03T08:48:17.533Z,1164.38
2019-04-03T08:49:15.158Z,1293.75
2019-04-03T08:50:15.019Z,1102.50
2019-04-03T08:51:15.027Z,928.12
2019-04-03T08:52:15.090Z,1361.25
2019-04-03T08:53:14.987Z,1288.12
2019-04-03T08:54:14.965Z,1288.12
2019-04-03T08:55:14.972Z,1091.25
2019-04-03T08:56:17.122Z,860.62
2019-04-03T08:57:14.935Z,1108.12
2019-04-03T08:58:14.920Z,995.62
2019-04-03T08:59:14.994Z,421.88
2019-04-03T09:00:15.077Z,180.00
2019-04-03T09:01:14.968Z,163.12
2019-04-03T09:02:14.967Z,163.12
2019-04-03T09:03:15.327Z,157.50
2019-04-03T09:04:16.831Z,157.50
2019-04-03T09:05:15.147Z,157.50
2019-04-03T09:06:14.829Z,151.88
2019-04-03T09:07:14.815Z,140.62
2019-04-03T09:08:14.817Z,146.25
2019-04-03T09:09:15.024Z,140.62
2019-04-03T09:10:14.820Z,151.88
2019-04-03T09:11:14.779Z,151.88
2019-04-03T09:12:14.861Z,157.50
2019-04-03T09:13:18.293Z,157.50
2019-04-03T09:14:14.998Z,163.12
2019-04-03T09:15:14.730Z,168.75
2019-04-03T09:16:14.721Z,163.12
2019-04-03T09:17:14.712Z,163.12
2019-04-03T09:18:14.698Z,163.12
2019-04-03T09:19:16.843Z,163.12
2019-04-03T09:20:14.673Z,163.12
2019-04-03T09:21:15.571Z,157.50
2019-04-03T09:22:14.649Z,157.50
2019-04-03T09:23:14.778Z,157.50
2019-04-03T09:24:14.746Z,157.50
2019-04-03T09:25:14.616Z,157.50
2019-04-03T09:26:14.611Z,157.50
2019-04-03T09:27:14.599Z,157.50
2019-04-03T09:28:14.677Z,157.50
2019-04-03T09:29:14.572Z,157.50
2019-04-03T09:30:16.119Z,157.50
2019-04-03T09:31:14.646Z,157.50
2019-04-03T09:32:14.793Z,151.88
2019-04-03T09:33:14.544Z,151.88
2019-04-03T09:34:14.513Z,157.50
2019-04-03T09:35:14.512Z,151.88
2019-04-03T09:36:14.634Z,151.88
2019-04-03T09:37:17.493Z,151.88
2019-04-03T09:38:14.475Z,151.88
2019-04-03T09:39:14.777Z,163.12
2019-04-03T09:40:16.486Z,174.38
2019-04-03T09:41:14.434Z,174.38
2019-04-03T09:42:14.421Z,174.38
2019-04-03T09:43:14.414Z,174.38
2019-04-03T09:44:14.418Z,174.38
2019-04-03T09:45:14.395Z,174.38
2019-04-03T09:46:14.473Z,168.75
2019-04-03T09:47:14.375Z,168.75
2019-04-03T09:48:14.397Z,168.75
2019-04-03T09:49:14.356Z,163.12
2019-04-03T09:50:14.832Z,163.12
2019-04-03T09:51:14.327Z,163.12
2019-04-03T09:52:14.315Z,163.12
2019-04-03T09:53:14.307Z,163.12
2019-04-03T09:54:14.294Z,163.12
2019-04-03T09:55:14.296Z,157.50
2019-04-03T09:56:14.384Z,163.12
2019-04-03T09:57:14.385Z,163.12
2019-04-03T09:58:14.269Z,163.12
2019-04-03T09:59:15.896Z,163.12
2019-04-03T10:00:14.227Z,163.12
2019-04-03T10:01:17.774Z,163.12
2019-04-03T10:02:14.204Z,163.12
2019-04-03T10:03:14.199Z,163.12
2019-04-03T10:04:14.373Z,163.12
2019-04-03T10:05:14.174Z,163.12
2019-04-03T10:06:14.176Z,163.12
2019-04-03T10:07:14.154Z,163.12
2019-04-03T10:08:14.144Z,163.12
2019-04-03T10:09:14.334Z,163.12
2019-04-03T10:10:16.604Z,168.75
2019-04-03T10:11:15.522Z,168.75
2019-04-03T10:12:14.106Z,168.75
2019-04-03T10:13:14.084Z,163.12
2019-04-03T10:14:14.093Z,168.75
2019-04-03T10:15:14.061Z,163.12
2019-04-03T10:16:15.990Z,163.12
2019-04-03T10:17:14.274Z,163.12
2019-04-03T10:18:14.048Z,163.12
2019-04-03T10:19:14.664Z,163.12
2019-04-03T10:20:16.483Z,157.50
2019-04-03T10:21:14.020Z,168.75
2019-04-03T10:22:14.059Z,168.75
2019-04-03T10:23:13.969Z,163.12
2019-04-03T10:24:14.280Z,157.50
2019-04-03T10:25:13.954Z,157.50
2019-04-03T10:26:14.201Z,157.50
2019-04-03T10:27:13.930Z,163.12
2019-04-03T10:28:15.088Z,157.50
2019-04-03T10:29:14.315Z,146.25
2019-04-03T10:30:13.891Z,151.88
2019-04-03T10:31:13.886Z,151.88
2019-04-03T10:32:13.887Z,157.50
2019-04-03T10:33:13.864Z,168.75
2019-04-03T10:34:14.786Z,174.38
2019-04-03T10:35:14.241Z,174.38
2019-04-03T10:36:13.826Z,180.00
2019-04-03T10:37:15.155Z,191.25
2019-04-03T10:38:13.816Z,168.75
2019-04-03T10:39:13.804Z,163.12
2019-04-03T10:40:13.784Z,157.50
2019-04-03T10:41:14.023Z,151.88
2019-04-03T10:42:13.758Z,140.62
2019-04-03T10:43:13.893Z,140.62
2019-04-03T10:44:13.800Z,140.62
2019-04-03T10:45:13.743Z,146.25
2019-04-03T10:46:13.713Z,151.88
2019-04-03T10:47:13.705Z,157.50
2019-04-03T10:48:13.700Z,157.50
2019-04-03T10:49:13.756Z,157.50
2019-04-03T10:50:14.070Z,140.62
2019-04-03T10:51:13.666Z,146.25
2019-04-03T10:52:14.386Z,146.25
2019-04-03T10:53:13.637Z,151.88
2019-04-03T10:54:13.634Z,157.50
2019-04-03T10:55:13.819Z,157.50
2019-04-03T10:56:13.607Z,146.25
2019-04-03T10:57:13.651Z,146.25
2019-04-03T10:58:13.592Z,146.25
2019-04-03T10:59:15.856Z,151.88
2019-04-03T11:00:13.568Z,157.50
2019-04-03T11:01:13.555Z,151.88
2019-04-03T11:02:13.557Z,163.12
2019-04-03T11:03:13.525Z,163.12
2019-04-03T11:04:13.517Z,151.88
2019-04-03T11:05:13.504Z,151.88
2019-04-03T11:06:13.496Z,163.12
2019-04-03T11:07:13.487Z,168.75
2019-04-03T11:08:13.594Z,168.75
2019-04-03T11:09:13.465Z,174.38
2019-04-03T11:10:13.509Z,168.75
2019-04-03T11:11:13.760Z,168.75
2019-04-03T11:12:13.775Z,174.38
2019-04-03T11:13:20.559Z,163.12
2019-04-03T11:14:55.085Z,163.12
2019-04-03T11:16:02.401Z,163.12
2019-04-03T11:17:36.726Z,168.75
2019-04-03T11:18:37.158Z,174.38
2019-04-03T11:19:37.443Z,174.38
2019-04-03T11:20:37.161Z,174.38
2019-04-03T11:21:36.699Z,168.75
2019-04-03T11:22:40.748Z,163.12
2019-04-03T11:23:43.446Z,163.12
2019-04-03T11:24:41.499Z,157.50
2019-04-03T11:25:36.631Z,151.88
2019-04-03T11:26:36.626Z,151.88
2019-04-03T11:28:38.641Z,146.25
2019-04-03T11:29:36.647Z,151.88
2019-04-03T11:30:36.562Z,157.50
2019-04-03T11:30:55.440Z,146.25
2019-04-03T11:31:41.740Z,151.88
2019-04-03T11:32:37.575Z,157.50
2019-04-03T11:33:36.562Z,151.88
2019-04-03T11:34:36.766Z,163.12
2019-04-03T11:35:36.509Z,163.12
2019-04-03T11:36:36.496Z,168.75
2019-04-03T11:37:36.479Z,157.50
2019-04-03T11:38:36.700Z,157.50
2019-04-03T11:39:37.511Z,163.12
2019-04-03T11:40:36.740Z,163.12
2019-04-03T11:41:36.664Z,174.38
2019-04-03T11:42:36.512Z,174.38
2019-04-03T11:43:36.457Z,180.00
2019-04-03T11:44:36.403Z,180.00
2019-04-03T11:45:36.391Z,180.00
2019-04-03T11:46:36.522Z,168.75
2019-04-03T11:47:36.369Z,146.25
2019-04-03T11:48:36.361Z,163.12
2019-04-03T11:49:36.551Z,174.38
2019-04-03T11:50:38.884Z,174.38
2019-04-03T11:51:36.321Z,174.38
2019-04-03T11:52:36.311Z,146.25
2019-04-03T11:53:36.303Z,135.00
2019-04-03T11:54:38.862Z,129.38
2019-04-03T11:55:36.277Z,118.12
2019-04-03T11:56:36.266Z,129.38
2019-04-03T11:57:36.255Z,129.38
2019-04-03T11:58:36.613Z,129.38
2019-04-03T11:59:36.254Z,123.75
2019-04-03T12:00:36.227Z,112.50
2019-04-03T12:01:36.407Z,123.75
2019-04-03T12:02:36.871Z,129.38
2019-04-03T12:03:36.439Z,135.00
2019-04-03T12:04:36.186Z,163.12
2019-04-03T12:05:36.170Z,180.00
2019-04-03T12:06:36.417Z,191.25
2019-04-03T12:07:36.254Z,185.62
2019-04-03T12:08:36.130Z,180.00
2019-04-03T12:09:36.130Z,174.38
2019-04-03T12:10:36.113Z,180.00
2019-04-03T12:11:38.721Z,202.50
2019-04-03T12:12:36.089Z,213.75
2019-04-03T12:13:36.112Z,225.00
2019-04-03T12:14:36.067Z,202.50
2019-04-03T12:15:36.054Z,185.62
2019-04-03T12:16:36.058Z,196.88
2019-04-03T12:17:36.032Z,185.62
2019-04-03T12:18:36.201Z,185.62
2019-04-03T12:19:37.135Z,180.00
2019-04-03T12:20:36.420Z,180.00
2019-04-03T12:21:35.995Z,168.75
2019-04-03T12:22:36.291Z,174.38
2019-04-03T12:23:38.744Z,163.12
2019-04-03T12:24:36.257Z,157.50
2019-04-03T12:25:38.230Z,151.88
2019-04-03T12:26:35.934Z,146.25
2019-04-03T12:27:36.628Z,140.62
2019-04-03T12:28:36.252Z,140.62
2019-04-03T12:29:35.917Z,140.62
2019-04-03T12:30:35.913Z,140.62
2019-04-03T12:31:35.884Z,140.62
2019-04-03T12:32:41.283Z,146.25
2019-04-03T12:33:36.893Z,135.00
2019-04-03T12:34:37.222Z,129.38
2019-04-03T12:35:35.838Z,106.88
2019-04-03T12:36:35.836Z,101.25
2019-04-03T12:37:36.005Z,90.00
2019-04-03T12:38:35.803Z,90.00
2019-04-03T12:39:35.794Z,90.00
2019-04-03T12:40:35.797Z,95.62
2019-04-03T12:41:36.427Z,106.88
2019-04-03T12:42:35.860Z,112.50
2019-04-03T12:43:36.134Z,106.88
2019-04-03T12:44:35.738Z,106.88
2019-04-03T12:45:35.839Z,101.25
2019-04-03T12:46:35.827Z,95.62
2019-04-03T12:47:44.579Z,106.88
2019-04-03T12:49:17.470Z,112.50
2019-04-03T12:50:17.368Z,112.50
2019-04-03T12:52:03.046Z,112.50
2019-04-03T12:52:59.479Z,112.50
2019-04-03T12:53:59.782Z,112.50
2019-04-03T12:54:59.705Z,106.88
2019-04-03T12:55:59.653Z,106.88
2019-04-03T12:57:01.645Z,106.88
2019-04-03T12:57:59.449Z,106.88
2019-04-03T12:58:59.664Z,106.88
2019-04-03T12:59:59.397Z,106.88